Time,TemperatureF,DewpointF,PressureIn,WindDirection,WindDirectionDegrees,WindSpeedMPH,WindSpeedGustMPH,Humidity,HourlyPrecipIn,Conditions,Clouds,dailyrainin,SoftwareType,DateUTC
2013-10-17 00:02:00,49.2,44.0,29.98,WSW,252,1.0,3.0,82,0.00,,,0.00,weatherlink.com 1.10,2013-10-17 05:02:00,
2013-10-17 00:17:00,49.1,44.0,29.98,WSW,243,3.0,3.0,82,0.00,,,0.00,weatherlink.com 1.10,2013-10-17 05:17:00,
2013-10-17 00:32:00,49.0,44.0,29.98,West,260,1.0,3.0,83,0.00,,,0.00,weatherlink.com 1.10,2013-10-17 05:32:00,
2013-10-17 00:47:00,49.0,44.0,29.98,WSW,245,2.0,2.0,83,0.00,,,0.00,weatherlink.com 1.10,2013-10-17 05:47:00,
2013-10-17 01:02:00,48.9,44.0,29.97,West,273,0.0,2.0,83,0.00,,,0.00,weatherlink.com 1.10,2013-10-17 06:02:00,
2013-10-17 01:17:00,48.6,44.0,29.96,NW,310,0.0,3.0,85,0.01,,,0.01,weatherlink.com 1.10,2013-10-17 06:17:00,
2013-10-17 01:32:00,47.6,45.0,29.97,NW,311,0.0,1.0,90,0.01,,,0.01,weatherlink.com 1.10,2013-10-17 06:32:00,
2013-10-17 01:47:00,47.1,45.0,29.96,NW,311,0.0,0.0,91,0.02,,,0.02,weatherlink.com 1.10,2013-10-17 06:47:00,
2013-10-17 02:02:00,46.7,45.0,29.96,NW,311,0.0,1.0,93,0.02,,,0.02,weatherlink.com 1.10,2013-10-17 07:02:00,
2013-10-17 02:17:00,46.6,45.0,29.96,West,278,0.0,1.0,94,0.01,,,0.02,weatherlink.com 1.10,2013-10-17 07:17:00,
2013-10-17 02:32:00,46.6,45.0,29.96,WSW,239,0.0,1.0,94,0.02,,,0.03,weatherlink.com 1.10,2013-10-17 07:32:00,
2013-10-17 02:47:00,46.4,45.0,29.95,WSW,239,0.0,1.0,94,0.02,,,0.04,weatherlink.com 1.10,2013-10-17 07:47:00,
2013-10-17 03:02:00,46.4,45.0,29.95,WSW,239,0.0,1.0,95,0.03,,,0.05,weatherlink.com 1.10,2013-10-17 08:02:00,
2013-10-17 03:17:00,46.3,45.0,29.95,WSW,238,0.0,1.0,95,0.03,,,0.05,weatherlink.com 1.10,2013-10-17 08:17:00,
2013-10-17 03:32:00,46.3,45.0,29.94,WSW,249,1.0,1.0,95,0.03,,,0.06,weatherlink.com 1.10,2013-10-17 08:32:00,
2013-10-17 03:47:00,46.2,45.0,29.94,WSW,249,1.0,2.0,95,0.02,,,0.06,weatherlink.com 1.10,2013-10-17 08:47:00,
2013-10-17 04:02:00,46.1,45.0,29.94,WSW,253,0.0,2.0,96,0.01,,,0.06,weatherlink.com 1.10,2013-10-17 09:02:00,
2013-10-17 04:17:00,46.1,45.0,29.94,WSW,243,1.0,3.0,95,0.01,,,0.06,weatherlink.com 1.10,2013-10-17 09:17:00,
2013-10-17 04:32:00,46.1,45.0,29.94,WSW,240,1.0,3.0,96,0.01,,,0.07,weatherlink.com 1.10,2013-10-17 09:32:00,
2013-10-17 04:47:00,45.9,45.0,29.94,West,262,3.0,3.0,96,0.01,,,0.07,weatherlink.com 1.10,2013-10-17 09:47:00,
2013-10-17 05:02:00,45.9,45.0,29.93,WSW,253,0.0,3.0,96,0.01,,,0.07,weatherlink.com 1.10,2013-10-17 10:02:00,
2013-10-17 05:17:00,45.8,45.0,29.94,SW,231,1.0,3.0,96,0.01,,,0.07,weatherlink.com 1.10,2013-10-17 10:17:00,
2013-10-17 05:32:00,45.8,45.0,29.94,SW,217,2.0,3.0,96,0.00,,,0.07,weatherlink.com 1.10,2013-10-17 10:32:00,
2013-10-17 05:47:00,45.7,45.0,29.94,WSW,243,2.0,4.0,96,0.00,,,0.07,weatherlink.com 1.10,2013-10-17 10:47:00,
2013-10-17 06:02:00,45.8,45.0,29.93,SW,236,2.0,4.0,96,0.00,,,0.07,weatherlink.com 1.10,2013-10-17 11:02:00,
2013-10-17 06:17:00,45.8,45.0,29.94,WSW,257,1.0,4.0,96,0.00,,,0.07,weatherlink.com 1.10,2013-10-17 11:17:00,
2013-10-17 06:32:00,45.7,45.0,29.93,WSW,252,2.0,3.0,96,0.01,,,0.08,weatherlink.com 1.10,2013-10-17 11:32:00,
2013-10-17 06:47:00,45.7,45.0,29.93,West,262,2.0,3.0,96,0.01,,,0.08,weatherlink.com 1.10,2013-10-17 11:47:00,
2013-10-17 07:04:00,45.7,45.0,29.93,WSW,257,1.0,3.0,96,0.01,,,0.08,weatherlink.com 1.10,2013-10-17 12:04:00,
2013-10-17 07:18:00,45.7,45.0,29.93,WSW,239,2.0,3.0,96,0.01,,,0.08,weatherlink.com 1.10,2013-10-17 12:18:00,
2013-10-17 07:33:00,45.7,45.0,29.93,WSW,240,2.0,2.0,96,0.00,,,0.08,weatherlink.com 1.10,2013-10-17 12:33:00,
2013-10-17 07:48:00,45.8,45.0,29.93,SW,221,2.0,4.0,96,0.00,,,0.08,weatherlink.com 1.10,2013-10-17 12:48:00,
2013-10-17 08:03:00,45.9,45.0,29.93,WSW,253,2.0,3.0,96,0.00,,,0.08,weatherlink.com 1.10,2013-10-17 13:03:00,
2013-10-17 08:19:00,45.9,45.0,29.94,SW,225,1.0,3.0,96,0.00,,,0.08,weatherlink.com 1.10,2013-10-17 13:19:00,
2013-10-17 08:34:00,46.2,45.0,29.95,WSW,248,2.0,4.0,96,0.00,,,0.08,weatherlink.com 1.10,2013-10-17 13:34:00,
2013-10-17 08:49:00,46.5,46.0,29.95,West,274,1.0,4.0,96,0.00,,,0.08,weatherlink.com 1.10,2013-10-17 13:49:00,
2013-10-17 09:04:00,46.8,46.0,29.95,West,263,3.0,7.0,96,0.00,,,0.08,weatherlink.com 1.10,2013-10-17 14:04:00,
2013-10-17 09:19:00,47.9,46.0,29.95,WSW,245,2.0,8.0,94,0.00,,,0.08,weatherlink.com 1.10,2013-10-17 14:19:00,
2013-10-17 09:33:00,48.0,46.0,29.95,West,266,6.0,8.0,91,0.00,,,0.08,weatherlink.com 1.10,2013-10-17 14:33:00,
2013-10-17 09:49:00,48.1,45.0,29.95,West,262,3.0,7.0,90,0.00,,,0.08,weatherlink.com 1.10,2013-10-17 14:49:00,
2013-10-17 10:05:00,49.8,47.0,29.95,WSW,254,3.0,6.0,90,0.00,,,0.08,weatherlink.com 1.10,2013-10-17 15:05:00,
2013-10-17 10:20:00,50.8,47.0,29.95,SW,217,6.0,6.0,86,0.00,,,0.08,weatherlink.com 1.10,2013-10-17 15:20:00,
2013-10-17 10:34:00,51.6,46.0,29.95,WSW,238,4.0,12.0,82,0.00,,,0.08,weatherlink.com 1.10,2013-10-17 15:34:00,
2013-10-17 10:50:00,52.7,47.0,29.95,WSW,248,3.0,12.0,81,0.00,,,0.08,weatherlink.com 1.10,2013-10-17 15:50:00,
2013-10-17 11:04:00,53.0,46.0,29.94,SW,222,4.0,12.0,78,0.00,,,0.08,weatherlink.com 1.10,2013-10-17 16:04:00,
2013-10-17 11:21:00,53.9,46.0,29.94,WNW,284,5.0,13.0,74,0.00,,,0.08,weatherlink.com 1.10,2013-10-17 16:21:00,
2013-10-17 11:34:00,55.5,46.0,29.93,West,281,4.0,11.0,71,0.00,,,0.08,weatherlink.com 1.10,2013-10-17 16:34:00,
2013-10-17 11:50:00,56.6,44.0,29.92,West,260,5.0,10.0,64,0.00,,,0.08,weatherlink.com 1.10,2013-10-17 16:50:00,
2013-10-17 12:05:00,57.8,44.0,29.92,WSW,255,4.0,12.0,61,0.00,,,0.08,weatherlink.com 1.10,2013-10-17 17:05:00,
2013-10-17 12:20:00,56.7,45.0,29.92,West,271,3.0,8.0,65,0.00,,,0.08,weatherlink.com 1.10,2013-10-17 17:20:00,
2013-10-17 12:36:00,57.1,45.0,29.92,WSW,252,4.0,10.0,64,0.00,,,0.08,weatherlink.com 1.10,2013-10-17 17:36:00,
2013-10-17 12:50:00,59.0,44.0,29.91,NW,314,4.0,12.0,58,0.00,,,0.08,weatherlink.com 1.10,2013-10-17 17:50:00,
2013-10-17 13:06:00,58.7,44.0,29.90,WSW,253,3.0,17.0,58,0.00,,,0.08,weatherlink.com 1.10,2013-10-17 18:06:00,
2013-10-17 13:20:00,59.6,43.0,29.89,West,259,6.0,15.0,54,0.00,,,0.08,weatherlink.com 1.10,2013-10-17 18:20:00,
2013-10-17 13:36:00,60.0,43.0,29.89,West,259,10.0,15.0,53,0.00,,,0.08,weatherlink.com 1.10,2013-10-17 18:36:00,
2013-10-17 13:51:00,60.6,43.0,29.88,West,273,4.0,13.0,52,0.00,,,0.08,weatherlink.com 1.10,2013-10-17 18:51:00,
2013-10-17 14:05:00,61.1,42.0,29.88,WSW,238,6.0,12.0,50,0.00,,,0.08,weatherlink.com 1.10,2013-10-17 19:05:00,
2013-10-17 14:21:00,60.0,41.0,29.88,WSW,240,10.0,11.0,50,0.00,,,0.08,weatherlink.com 1.10,2013-10-17 19:21:00,
2013-10-17 14:36:00,61.3,42.0,29.87,West,262,7.0,14.0,50,0.00,,,0.08,weatherlink.com 1.10,2013-10-17 19:36:00,
2013-10-17 14:52:00,60.6,40.0,29.87,WSW,253,4.0,13.0,46,0.00,,,0.08,weatherlink.com 1.10,2013-10-17 19:52:00,
2013-10-17 15:07:00,61.4,40.0,29.87,WNW,293,5.0,14.0,46,0.00,,,0.08,weatherlink.com 1.10,2013-10-17 20:07:00,
2013-10-17 15:21:00,62.7,40.0,29.87,West,278,6.0,11.0,44,0.00,,,0.08,weatherlink.com 1.10,2013-10-17 20:21:00,
2013-10-17 15:36:00,62.3,41.0,29.87,WSW,254,4.0,10.0,46,0.00,,,0.08,weatherlink.com 1.10,2013-10-17 20:36:00,
2013-10-17 15:52:00,61.6,41.0,29.87,West,260,2.0,11.0,47,0.00,,,0.08,weatherlink.com 1.10,2013-10-17 20:52:00,
2013-10-17 16:07:00,61.5,43.0,29.86,WSW,246,0.0,8.0,50,0.00,,,0.08,weatherlink.com 1.10,2013-10-17 21:07:00,
2013-10-17 16:21:00,62.7,42.0,29.86,WNW,285,2.0,5.0,47,0.00,,,0.08,weatherlink.com 1.10,2013-10-17 21:21:00,
2013-10-17 16:37:00,62.1,41.0,29.86,West,262,3.0,4.0,46,0.00,,,0.08,weatherlink.com 1.10,2013-10-17 21:37:00,
2013-10-17 16:52:00,62.5,40.0,29.86,WSW,246,8.0,9.0,43,0.00,,,0.08,weatherlink.com 1.10,2013-10-17 21:52:00,
2013-10-17 17:07:00,62.4,41.0,29.86,WSW,255,2.0,9.0,45,0.00,,,0.08,weatherlink.com 1.10,2013-10-17 22:07:00,
2013-10-17 17:23:00,61.7,41.0,29.86,SW,236,6.0,6.0,46,0.00,,,0.08,weatherlink.com 1.10,2013-10-17 22:23:00,
2013-10-17 17:37:00,60.8,41.0,29.86,SW,231,2.0,6.0,48,0.00,,,0.08,weatherlink.com 1.10,2013-10-17 22:37:00,
2013-10-17 17:52:00,60.0,41.0,29.86,SW,216,1.0,4.0,50,0.00,,,0.08,weatherlink.com 1.10,2013-10-17 22:52:00,
2013-10-17 18:08:00,58.8,40.0,29.87,WSW,245,3.0,4.0,51,0.00,,,0.08,weatherlink.com 1.10,2013-10-17 23:08:00,
2013-10-17 18:22:00,57.8,40.0,29.87,WSW,250,2.0,3.0,52,0.00,,,0.08,weatherlink.com 1.10,2013-10-17 23:22:00,
2013-10-17 18:38:00,57.0,40.0,29.88,WSW,239,2.0,4.0,54,0.00,,,0.08,weatherlink.com 1.10,2013-10-17 23:38:00,
2013-10-17 18:53:00,56.7,40.0,29.88,WSW,243,1.0,4.0,55,0.00,,,0.08,weatherlink.com 1.10,2013-10-17 23:53:00,
2013-10-17 19:08:00,55.9,41.0,29.88,WSW,245,3.0,5.0,57,0.00,,,0.08,weatherlink.com 1.10,2013-10-18 00:08:00,
2013-10-17 19:23:00,55.9,41.0,29.88,SW,228,2.0,5.0,58,0.00,,,0.08,weatherlink.com 1.10,2013-10-18 00:23:00,
2013-10-17 19:37:00,55.4,41.0,29.89,SW,236,2.0,3.0,59,0.00,,,0.08,weatherlink.com 1.10,2013-10-18 00:37:00,
2013-10-17 19:53:00,54.7,41.0,29.89,SSW,200,2.0,5.0,61,0.00,,,0.08,weatherlink.com 1.10,2013-10-18 00:53:00,
2013-10-17 20:08:00,53.8,42.0,29.89,WSW,242,2.0,3.0,64,0.00,,,0.08,weatherlink.com 1.10,2013-10-18 01:08:00,
2013-10-17 20:23:00,54.0,42.0,29.89,SW,228,1.0,4.0,64,0.00,,,0.08,weatherlink.com 1.10,2013-10-18 01:23:00,
2013-10-17 20:39:00,53.5,42.0,29.90,SW,222,2.0,4.0,66,0.00,,,0.08,weatherlink.com 1.10,2013-10-18 01:39:00,
2013-10-17 20:53:00,53.0,43.0,29.90,SW,228,1.0,4.0,68,0.00,,,0.08,weatherlink.com 1.10,2013-10-18 01:53:00,
2013-10-17 21:08:00,52.4,42.0,29.90,SW,236,2.0,4.0,69,0.00,,,0.08,weatherlink.com 1.10,2013-10-18 02:08:00,
2013-10-17 21:24:00,52.3,43.0,29.90,WSW,243,2.0,3.0,70,0.00,,,0.08,weatherlink.com 1.10,2013-10-18 02:24:00,
2013-10-17 21:38:00,52.0,43.0,29.90,SW,226,1.0,5.0,72,0.00,,,0.08,weatherlink.com 1.10,2013-10-18 02:38:00,
2013-10-17 21:54:00,52.0,43.0,29.90,WSW,255,2.0,4.0,72,0.00,,,0.08,weatherlink.com 1.10,2013-10-18 02:54:00,
2013-10-17 22:08:00,52.0,43.0,29.90,SW,224,5.0,5.0,72,0.00,,,0.08,weatherlink.com 1.10,2013-10-18 03:08:00,
2013-10-17 22:24:00,51.5,43.0,29.90,WSW,250,3.0,6.0,74,0.00,,,0.08,weatherlink.com 1.10,2013-10-18 03:24:00,
2013-10-17 22:39:00,51.2,43.0,29.90,SSW,210,4.0,6.0,74,0.00,,,0.08,weatherlink.com 1.10,2013-10-18 03:39:00,
2013-10-17 22:53:00,50.9,43.0,29.89,SSW,210,2.0,5.0,75,0.00,,,0.08,weatherlink.com 1.10,2013-10-18 03:53:00,
2013-10-17 23:10:00,50.9,43.0,29.89,SW,233,3.0,4.0,75,0.00,,,0.08,weatherlink.com 1.10,2013-10-18 04:10:00,
2013-10-17 23:24:00,50.5,43.0,29.89,WSW,239,2.0,6.0,76,0.00,,,0.08,weatherlink.com 1.10,2013-10-18 04:24:00,
2013-10-17 23:39:00,50.1,43.0,29.89,SW,228,2.0,4.0,77,0.00,,,0.08,weatherlink.com 1.10,2013-10-18 04:39:00,
2013-10-17 23:55:00,49.5,43.0,29.89,SW,224,1.0,4.0,78,0.00,,,0.08,weatherlink.com 1.10,2013-10-18 04:55:00,